National Weather Service Raw Text Product

Displaying AFOS PIL: TAFMCW Received: 2018-12-06 17:25 UTC


822 
FTUS43 KDMX 061725
TAFMCW
TAF
KMCW 061725Z 0618/0718 32010KT P6SM OVC017
      TEMPO 0618/0622 SCT017
     FM070200 30005KT P6SM SCT015
     FM071400 24006KT P6SM SCT015 BKN035=